sensor_id;sensor_type;location;lat;lon;timestamp;P1;durP1;ratioP1;P2;durP2;ratioP2
67372;SDS011;54257;54.496;18.412;2023-05-15T00:01:59;7.90;;;6.60;;
67372;SDS011;54257;54.496;18.412;2023-05-15T00:04:27;7.40;;;6.40;;
67372;SDS011;54257;54.496;18.412;2023-05-15T00:06:54;9.30;;;6.20;;
67372;SDS011;54257;54.496;18.412;2023-05-15T00:09:21;7.20;;;5.90;;
67372;SDS011;54257;54.496;18.412;2023-05-15T00:11:48;6.80;;;6.10;;
67372;SDS011;54257;54.496;18.412;2023-05-15T00:14:18;7.70;;;5.70;;
67372;SDS011;54257;54.496;18.412;2023-05-15T00:16:44;6.20;;;5.30;;
67372;SDS011;54257;54.496;18.412;2023-05-15T00:19:11;6.20;;;5.60;;
67372;SDS011;54257;54.496;18.412;2023-05-15T00:21:41;6.50;;;5.20;;
67372;SDS011;54257;54.496;18.412;2023-05-15T00:24:08;6.70;;;5.30;;
67372;SDS011;54257;54.496;18.412;2023-05-15T00:26:37;7.60;;;5.40;;
67372;SDS011;54257;54.496;18.412;2023-05-15T00:29:03;7.00;;;6.20;;
67372;SDS011;54257;54.496;18.412;2023-05-15T00:31:32;8.40;;;5.80;;
67372;SDS011;54257;54.496;18.412;2023-05-15T00:33:59;6.50;;;5.60;;
67372;SDS011;54257;54.496;18.412;2023-05-15T00:36:26;7.00;;;5.70;;
67372;SDS011;54257;54.496;18.412;2023-05-15T00:38:54;7.70;;;6.20;;
67372;SDS011;54257;54.496;18.412;2023-05-15T00:41:21;6.80;;;4.80;;
67372;SDS011;54257;54.496;18.412;2023-05-15T00:43:52;9.50;;;6.80;;
67372;SDS011;54257;54.496;18.412;2023-05-15T00:46:26;6.10;;;5.60;;
67372;SDS011;54257;54.496;18.412;2023-05-15T00:48:54;6.50;;;5.10;;
67372;SDS011;54257;54.496;18.412;2023-05-15T00:51:24;7.60;;;6.10;;
67372;SDS011;54257;54.496;18.412;2023-05-15T00:53:52;7.90;;;5.90;;
67372;SDS011;54257;54.496;18.412;2023-05-15T00:56:20;5.90;;;5.40;;
67372;SDS011;54257;54.496;18.412;2023-05-15T00:58:51;5.90;;;5.30;;
67372;SDS011;54257;54.496;18.412;2023-05-15T01:01:19;5.60;;;5.10;;
67372;SDS011;54257;54.496;18.412;2023-05-15T01:03:47;6.50;;;5.60;;
67372;SDS011;54257;54.496;18.412;2023-05-15T01:06:13;7.00;;;6.10;;
67372;SDS011;54257;54.496;18.412;2023-05-15T01:08:47;6.50;;;5.50;;
67372;SDS011;54257;54.496;18.412;2023-05-15T01:11:16;6.80;;;5.20;;
67372;SDS011;54257;54.496;18.412;2023-05-15T01:13:43;6.00;;;5.40;;
67372;SDS011;54257;54.496;18.412;2023-05-15T01:16:10;6.10;;;5.50;;
67372;SDS011;54257;54.496;18.412;2023-05-15T01:18:37;8.90;;;4.90;;
67372;SDS011;54257;54.496;18.412;2023-05-15T01:21:19;5.30;;;4.80;;
67372;SDS011;54257;54.496;18.412;2023-05-15T01:31:56;5.20;;;4.70;;
67372;SDS011;54257;54.496;18.412;2023-05-15T01:34:40;6.90;;;5.10;;
67372;SDS011;54257;54.496;18.412;2023-05-15T01:37:14;5.80;;;4.90;;
67372;SDS011;54257;54.496;18.412;2023-05-15T01:39:48;6.20;;;5.30;;
67372;SDS011;54257;54.496;18.412;2023-05-15T01:42:19;6.30;;;4.90;;
67372;SDS011;54257;54.496;18.412;2023-05-15T01:44:53;6.10;;;5.50;;
67372;SDS011;54257;54.496;18.412;2023-05-15T01:47:30;6.30;;;5.40;;
67372;SDS011;54257;54.496;18.412;2023-05-15T01:50:03;5.70;;;5.30;;
67372;SDS011;54257;54.496;18.412;2023-05-15T01:52:33;6.10;;;5.30;;
67372;SDS011;54257;54.496;18.412;2023-05-15T01:55:01;8.40;;;5.70;;
67372;SDS011;54257;54.496;18.412;2023-05-15T01:57:30;5.50;;;5.00;;
67372;SDS011;54257;54.496;18.412;2023-05-15T01:59:57;5.90;;;5.40;;
67372;SDS011;54257;54.496;18.412;2023-05-15T02:02:25;5.50;;;5.10;;
67372;SDS011;54257;54.496;18.412;2023-05-15T02:04:53;5.40;;;4.90;;
67372;SDS011;54257;54.496;18.412;2023-05-15T02:07:22;6.40;;;5.30;;
67372;SDS011;54257;54.496;18.412;2023-05-15T02:09:51;5.60;;;4.80;;
67372;SDS011;54257;54.496;18.412;2023-05-15T02:12:19;7.70;;;5.60;;
67372;SDS011;54257;54.496;18.412;2023-05-15T02:14:47;6.90;;;5.50;;
67372;SDS011;54257;54.496;18.412;2023-05-15T02:17:15;6.50;;;5.50;;
67372;SDS011;54257;54.496;18.412;2023-05-15T02:19:43;6.10;;;5.60;;
67372;SDS011;54257;54.496;18.412;2023-05-15T02:22:10;7.10;;;5.70;;
67372;SDS011;54257;54.496;18.412;2023-05-15T02:24:36;7.90;;;5.60;;
67372;SDS011;54257;54.496;18.412;2023-05-15T02:27:04;6.20;;;5.60;;
67372;SDS011;54257;54.496;18.412;2023-05-15T02:37:48;5.80;;;4.90;;
67372;SDS011;54257;54.496;18.412;2023-05-15T02:40:19;6.50;;;5.50;;
67372;SDS011;54257;54.496;18.412;2023-05-15T02:42:49;6.40;;;5.40;;
67372;SDS011;54257;54.496;18.412;2023-05-15T02:45:18;5.40;;;4.90;;
67372;SDS011;54257;54.496;18.412;2023-05-15T02:47:46;5.00;;;4.50;;
67372;SDS011;54257;54.496;18.412;2023-05-15T02:50:15;5.90;;;5.30;;
67372;SDS011;54257;54.496;18.412;2023-05-15T02:52:43;6.10;;;5.20;;
67372;SDS011;54257;54.496;18.412;2023-05-15T02:55:10;6.10;;;5.50;;
67372;SDS011;54257;54.496;18.412;2023-05-15T02:57:37;6.30;;;5.30;;
67372;SDS011;54257;54.496;18.412;2023-05-15T03:00:04;6.10;;;5.00;;
67372;SDS011;54257;54.496;18.412;2023-05-15T03:02:34;7.00;;;5.70;;
67372;SDS011;54257;54.496;18.412;2023-05-15T03:05:01;6.90;;;5.50;;
67372;SDS011;54257;54.496;18.412;2023-05-15T03:07:29;6.20;;;5.20;;
67372;SDS011;54257;54.496;18.412;2023-05-15T03:09:56;7.80;;;5.60;;
67372;SDS011;54257;54.496;18.412;2023-05-15T03:12:23;9.00;;;5.80;;
67372;SDS011;54257;54.496;18.412;2023-05-15T03:14:49;6.60;;;5.30;;
67372;SDS011;54257;54.496;18.412;2023-05-15T03:17:16;5.90;;;5.20;;
67372;SDS011;54257;54.496;18.412;2023-05-15T03:19:43;6.10;;;5.40;;
67372;SDS011;54257;54.496;18.412;2023-05-15T03:22:10;7.20;;;5.80;;
67372;SDS011;54257;54.496;18.412;2023-05-15T03:24:37;6.00;;;5.10;;
67372;SDS011;54257;54.496;18.412;2023-05-15T03:27:04;7.00;;;6.40;;
67372;SDS011;54257;54.496;18.412;2023-05-15T03:29:31;5.90;;;5.40;;
67372;SDS011;54257;54.496;18.412;2023-05-15T03:31:58;5.90;;;5.40;;
67372;SDS011;54257;54.496;18.412;2023-05-15T03:34:25;6.00;;;5.40;;
67372;SDS011;54257;54.496;18.412;2023-05-15T03:36:52;5.80;;;5.30;;
67372;SDS011;54257;54.496;18.412;2023-05-15T03:39:19;6.40;;;5.70;;
67372;SDS011;54257;54.496;18.412;2023-05-15T03:41:46;8.10;;;5.30;;
67372;SDS011;54257;54.496;18.412;2023-05-15T03:44:16;8.90;;;5.40;;
67372;SDS011;54257;54.496;18.412;2023-05-15T03:46:43;6.70;;;5.30;;
67372;SDS011;54257;54.496;18.412;2023-05-15T03:49:09;8.30;;;5.60;;
67372;SDS011;54257;54.496;18.412;2023-05-15T03:51:36;7.70;;;6.00;;
67372;SDS011;54257;54.496;18.412;2023-05-15T03:54:03;6.70;;;6.00;;
67372;SDS011;54257;54.496;18.412;2023-05-15T03:56:31;5.80;;;5.30;;
67372;SDS011;54257;54.496;18.412;2023-05-15T03:58:59;8.10;;;5.30;;
67372;SDS011;54257;54.496;18.412;2023-05-15T04:01:26;7.10;;;5.30;;
67372;SDS011;54257;54.496;18.412;2023-05-15T04:03:52;7.10;;;6.20;;
67372;SDS011;54257;54.496;18.412;2023-05-15T04:06:19;13.90;;;5.40;;
67372;SDS011;54257;54.496;18.412;2023-05-15T04:08:46;6.60;;;6.00;;
67372;SDS011;54257;54.496;18.412;2023-05-15T04:11:13;6.70;;;5.60;;
67372;SDS011;54257;54.496;18.412;2023-05-15T04:13:43;6.40;;;5.80;;
67372;SDS011;54257;54.496;18.412;2023-05-15T04:16:10;8.40;;;5.70;;
67372;SDS011;54257;54.496;18.412;2023-05-15T04:18:37;8.30;;;5.70;;
67372;SDS011;54257;54.496;18.412;2023-05-15T04:21:03;6.30;;;5.40;;
67372;SDS011;54257;54.496;18.412;2023-05-15T04:23:30;8.50;;;5.70;;
67372;SDS011;54257;54.496;18.412;2023-05-15T04:29:14;10.10;;;5.80;;
67372;SDS011;54257;54.496;18.412;2023-05-15T04:31:57;6.60;;;5.50;;
67372;SDS011;54257;54.496;18.412;2023-05-15T04:34:35;9.20;;;6.20;;
67372;SDS011;54257;54.496;18.412;2023-05-15T04:37:51;66.50;;;11.40;;
67372;SDS011;54257;54.496;18.412;2023-05-15T04:40:42;32.10;;;7.40;;
67372;SDS011;54257;54.496;18.412;2023-05-15T04:43:32;45.00;;;9.70;;
67372;SDS011;54257;54.496;18.412;2023-05-15T04:49:09;10.60;;;6.60;;
67372;SDS011;54257;54.496;18.412;2023-05-15T04:57:45;8.70;;;6.30;;
67372;SDS011;54257;54.496;18.412;2023-05-15T05:00:31;10.70;;;6.50;;
67372;SDS011;54257;54.496;18.412;2023-05-15T05:02:58;13.80;;;7.00;;
67372;SDS011;54257;54.496;18.412;2023-05-15T05:05:27;8.10;;;5.80;;
67372;SDS011;54257;54.496;18.412;2023-05-15T05:07:54;21.50;;;7.70;;
67372;SDS011;54257;54.496;18.412;2023-05-15T05:10:22;19.10;;;7.60;;
67372;SDS011;54257;54.496;18.412;2023-05-15T05:12:51;9.80;;;7.00;;
67372;SDS011;54257;54.496;18.412;2023-05-15T05:15:21;7.80;;;6.40;;
67372;SDS011;54257;54.496;18.412;2023-05-15T05:17:48;14.70;;;6.70;;
67372;SDS011;54257;54.496;18.412;2023-05-15T05:20:15;20.00;;;8.00;;
67372;SDS011;54257;54.496;18.412;2023-05-15T05:22:41;15.40;;;6.70;;
67372;SDS011;54257;54.496;18.412;2023-05-15T05:25:08;10.30;;;6.00;;
67372;SDS011;54257;54.496;18.412;2023-05-15T05:27:35;6.50;;;5.60;;
67372;SDS011;54257;54.496;18.412;2023-05-15T05:30:02;12.80;;;6.70;;
67372;SDS011;54257;54.496;18.412;2023-05-15T05:32:29;7.30;;;6.10;;
67372;SDS011;54257;54.496;18.412;2023-05-15T05:34:56;9.30;;;6.10;;
67372;SDS011;54257;54.496;18.412;2023-05-15T05:37:23;8.30;;;6.20;;
67372;SDS011;54257;54.496;18.412;2023-05-15T05:39:49;6.60;;;6.00;;
67372;SDS011;54257;54.496;18.412;2023-05-15T05:42:16;8.50;;;6.30;;
67372;SDS011;54257;54.496;18.412;2023-05-15T05:44:43;16.70;;;6.60;;
67372;SDS011;54257;54.496;18.412;2023-05-15T05:47:10;10.30;;;6.10;;
67372;SDS011;54257;54.496;18.412;2023-05-15T05:49:37;12.80;;;6.10;;
67372;SDS011;54257;54.496;18.412;2023-05-15T05:52:09;8.60;;;6.10;;
67372;SDS011;54257;54.496;18.412;2023-05-15T05:54:38;12.50;;;6.60;;
67372;SDS011;54257;54.496;18.412;2023-05-15T05:57:05;16.80;;;7.20;;
67372;SDS011;54257;54.496;18.412;2023-05-15T05:59:34;8.70;;;7.20;;
67372;SDS011;54257;54.496;18.412;2023-05-15T06:02:01;9.50;;;6.30;;
67372;SDS011;54257;54.496;18.412;2023-05-15T06:04:29;12.10;;;6.80;;
67372;SDS011;54257;54.496;18.412;2023-05-15T06:06:57;10.40;;;6.80;;
67372;SDS011;54257;54.496;18.412;2023-05-15T06:09:24;8.50;;;6.20;;
67372;SDS011;54257;54.496;18.412;2023-05-15T06:11:51;10.80;;;7.20;;
67372;SDS011;54257;54.496;18.412;2023-05-15T06:14:18;10.50;;;6.20;;
67372;SDS011;54257;54.496;18.412;2023-05-15T06:16:45;9.00;;;6.80;;
67372;SDS011;54257;54.496;18.412;2023-05-15T06:19:12;12.50;;;6.60;;
67372;SDS011;54257;54.496;18.412;2023-05-15T06:21:46;9.20;;;6.70;;
67372;SDS011;54257;54.496;18.412;2023-05-15T06:24:13;12.50;;;6.60;;
67372;SDS011;54257;54.496;18.412;2023-05-15T06:26:40;15.90;;;6.70;;
67372;SDS011;54257;54.496;18.412;2023-05-15T06:29:17;11.10;;;7.10;;
67372;SDS011;54257;54.496;18.412;2023-05-15T06:31:44;14.40;;;7.70;;
67372;SDS011;54257;54.496;18.412;2023-05-15T06:34:11;17.60;;;7.40;;
67372;SDS011;54257;54.496;18.412;2023-05-15T06:36:38;13.10;;;7.40;;
67372;SDS011;54257;54.496;18.412;2023-05-15T06:39:05;14.10;;;6.90;;
67372;SDS011;54257;54.496;18.412;2023-05-15T06:41:36;14.00;;;6.00;;
67372;SDS011;54257;54.496;18.412;2023-05-15T06:44:03;8.80;;;6.10;;
67372;SDS011;54257;54.496;18.412;2023-05-15T06:46:30;15.80;;;7.20;;
67372;SDS011;54257;54.496;18.412;2023-05-15T06:48:57;16.40;;;6.80;;
67372;SDS011;54257;54.496;18.412;2023-05-15T06:51:24;7.00;;;5.40;;
67372;SDS011;54257;54.496;18.412;2023-05-15T06:53:51;11.00;;;6.40;;
67372;SDS011;54257;54.496;18.412;2023-05-15T06:56:18;8.00;;;7.20;;
67372;SDS011;54257;54.496;18.412;2023-05-15T06:58:45;10.30;;;7.30;;
67372;SDS011;54257;54.496;18.412;2023-05-15T07:01:12;9.90;;;6.10;;
67372;SDS011;54257;54.496;18.412;2023-05-15T07:03:39;6.60;;;5.70;;
67372;SDS011;54257;54.496;18.412;2023-05-15T07:06:08;9.60;;;6.10;;
67372;SDS011;54257;54.496;18.412;2023-05-15T07:08:35;10.30;;;6.60;;
67372;SDS011;54257;54.496;18.412;2023-05-15T07:11:02;11.80;;;6.30;;
67372;SDS011;54257;54.496;18.412;2023-05-15T07:13:32;6.90;;;6.00;;
67372;SDS011;54257;54.496;18.412;2023-05-15T07:16:00;12.00;;;6.90;;
67372;SDS011;54257;54.496;18.412;2023-05-15T07:18:28;20.10;;;6.60;;
67372;SDS011;54257;54.496;18.412;2023-05-15T07:20:55;19.70;;;8.40;;
67372;SDS011;54257;54.496;18.412;2023-05-15T07:23:27;18.10;;;6.50;;
67372;SDS011;54257;54.496;18.412;2023-05-15T07:25:54;7.90;;;4.50;;
67372;SDS011;54257;54.496;18.412;2023-05-15T07:28:21;12.70;;;5.00;;
67372;SDS011;54257;54.496;18.412;2023-05-15T07:30:48;4.70;;;4.30;;
67372;SDS011;54257;54.496;18.412;2023-05-15T07:33:15;6.00;;;4.00;;
67372;SDS011;54257;54.496;18.412;2023-05-15T07:35:42;7.60;;;4.40;;
67372;SDS011;54257;54.496;18.412;2023-05-15T07:38:09;5.60;;;4.50;;
67372;SDS011;54257;54.496;18.412;2023-05-15T07:40:37;8.90;;;5.10;;
67372;SDS011;54257;54.496;18.412;2023-05-15T07:43:05;7.40;;;5.30;;
67372;SDS011;54257;54.496;18.412;2023-05-15T07:45:32;10.20;;;5.00;;
67372;SDS011;54257;54.496;18.412;2023-05-15T07:48:03;9.50;;;5.70;;
67372;SDS011;54257;54.496;18.412;2023-05-15T07:50:42;7.00;;;4.90;;
67372;SDS011;54257;54.496;18.412;2023-05-15T07:53:14;6.10;;;5.10;;
67372;SDS011;54257;54.496;18.412;2023-05-15T07:55:42;9.50;;;4.80;;
67372;SDS011;54257;54.496;18.412;2023-05-15T07:58:10;8.10;;;4.20;;
67372;SDS011;54257;54.496;18.412;2023-05-15T08:00:37;7.30;;;5.10;;
67372;SDS011;54257;54.496;18.412;2023-05-15T08:03:04;9.00;;;4.50;;
67372;SDS011;54257;54.496;18.412;2023-05-15T08:05:31;7.00;;;4.60;;
67372;SDS011;54257;54.496;18.412;2023-05-15T08:07:58;6.70;;;4.80;;
67372;SDS011;54257;54.496;18.412;2023-05-15T08:10:25;7.90;;;5.00;;
67372;SDS011;54257;54.496;18.412;2023-05-15T08:12:52;6.20;;;4.50;;
67372;SDS011;54257;54.496;18.412;2023-05-15T08:15:21;3.70;;;2.90;;
67372;SDS011;54257;54.496;18.412;2023-05-15T08:17:50;3.60;;;3.30;;
67372;SDS011;54257;54.496;18.412;2023-05-15T08:20:17;6.00;;;3.20;;
67372;SDS011;54257;54.496;18.412;2023-05-15T08:22:43;3.90;;;3.20;;
67372;SDS011;54257;54.496;18.412;2023-05-15T08:25:11;7.30;;;3.40;;
67372;SDS011;54257;54.496;18.412;2023-05-15T08:27:38;3.80;;;3.10;;
67372;SDS011;54257;54.496;18.412;2023-05-15T08:30:05;4.40;;;3.10;;
67372;SDS011;54257;54.496;18.412;2023-05-15T08:32:32;10.40;;;3.70;;
67372;SDS011;54257;54.496;18.412;2023-05-15T08:34:59;4.40;;;3.30;;
67372;SDS011;54257;54.496;18.412;2023-05-15T08:37:26;4.90;;;3.00;;
67372;SDS011;54257;54.496;18.412;2023-05-15T08:39:53;10.50;;;4.00;;
67372;SDS011;54257;54.496;18.412;2023-05-15T08:42:23;5.20;;;3.80;;
67372;SDS011;54257;54.496;18.412;2023-05-15T08:44:57;4.80;;;3.90;;
67372;SDS011;54257;54.496;18.412;2023-05-15T08:47:26;4.10;;;3.10;;
67372;SDS011;54257;54.496;18.412;2023-05-15T08:52:32;7.00;;;3.00;;
67372;SDS011;54257;54.496;18.412;2023-05-15T08:55:00;5.60;;;3.00;;
67372;SDS011;54257;54.496;18.412;2023-05-15T08:57:28;4.20;;;3.00;;
67372;SDS011;54257;54.496;18.412;2023-05-15T08:59:55;6.10;;;3.40;;
67372;SDS011;54257;54.496;18.412;2023-05-15T09:02:23;4.10;;;3.40;;
67372;SDS011;54257;54.496;18.412;2023-05-15T09:04:51;5.20;;;3.20;;
67372;SDS011;54257;54.496;18.412;2023-05-15T09:07:18;3.70;;;3.10;;
67372;SDS011;54257;54.496;18.412;2023-05-15T09:09:46;5.50;;;3.40;;
67372;SDS011;54257;54.496;18.412;2023-05-15T09:12:14;6.40;;;3.80;;
67372;SDS011;54257;54.496;18.412;2023-05-15T09:14:41;4.90;;;3.70;;
67372;SDS011;54257;54.496;18.412;2023-05-15T09:17:09;8.50;;;4.00;;
67372;SDS011;54257;54.496;18.412;2023-05-15T09:19:37;4.70;;;3.10;;
67372;SDS011;54257;54.496;18.412;2023-05-15T09:22:17;6.20;;;3.60;;
67372;SDS011;54257;54.496;18.412;2023-05-15T09:24:50;5.40;;;3.40;;
67372;SDS011;54257;54.496;18.412;2023-05-15T09:27:23;6.10;;;3.60;;
67372;SDS011;54257;54.496;18.412;2023-05-15T09:29:50;4.30;;;3.10;;
67372;SDS011;54257;54.496;18.412;2023-05-15T09:32:24;4.50;;;3.20;;
67372;SDS011;54257;54.496;18.412;2023-05-15T09:34:53;6.10;;;3.50;;
67372;SDS011;54257;54.496;18.412;2023-05-15T09:37:27;5.00;;;3.50;;
67372;SDS011;54257;54.496;18.412;2023-05-15T09:40:05;4.90;;;3.30;;
67372;SDS011;54257;54.496;18.412;2023-05-15T09:42:36;4.70;;;3.50;;
67372;SDS011;54257;54.496;18.412;2023-05-15T09:45:04;3.50;;;3.20;;
67372;SDS011;54257;54.496;18.412;2023-05-15T09:47:31;6.60;;;3.50;;
67372;SDS011;54257;54.496;18.412;2023-05-15T09:49:59;5.80;;;3.90;;
67372;SDS011;54257;54.496;18.412;2023-05-15T09:52:26;8.50;;;4.00;;
67372;SDS011;54257;54.496;18.412;2023-05-15T09:54:55;5.80;;;3.80;;
67372;SDS011;54257;54.496;18.412;2023-05-15T09:57:25;6.00;;;3.90;;
67372;SDS011;54257;54.496;18.412;2023-05-15T09:59:53;5.90;;;4.10;;
67372;SDS011;54257;54.496;18.412;2023-05-15T10:04:57;5.80;;;3.90;;
67372;SDS011;54257;54.496;18.412;2023-05-15T10:07:33;4.20;;;3.80;;
67372;SDS011;54257;54.496;18.412;2023-05-15T10:10:04;6.30;;;4.20;;
67372;SDS011;54257;54.496;18.412;2023-05-15T10:12:32;5.40;;;4.10;;
67372;SDS011;54257;54.496;18.412;2023-05-15T10:15:02;5.40;;;3.90;;
67372;SDS011;54257;54.496;18.412;2023-05-15T10:17:32;5.40;;;3.70;;
67372;SDS011;54257;54.496;18.412;2023-05-15T10:20:03;4.70;;;4.30;;
67372;SDS011;54257;54.496;18.412;2023-05-15T10:22:34;4.10;;;3.70;;
67372;SDS011;54257;54.496;18.412;2023-05-15T10:25:25;6.40;;;4.20;;
67372;SDS011;54257;54.496;18.412;2023-05-15T10:28:01;5.30;;;4.10;;
67372;SDS011;54257;54.496;18.412;2023-05-15T10:30:30;5.60;;;4.10;;
67372;SDS011;54257;54.496;18.412;2023-05-15T10:32:57;8.30;;;4.50;;
67372;SDS011;54257;54.496;18.412;2023-05-15T10:35:26;5.80;;;4.20;;
67372;SDS011;54257;54.496;18.412;2023-05-15T10:37:54;5.20;;;4.10;;
67372;SDS011;54257;54.496;18.412;2023-05-15T10:40:25;5.80;;;4.30;;
67372;SDS011;54257;54.496;18.412;2023-05-15T10:42:55;6.80;;;4.10;;
67372;SDS011;54257;54.496;18.412;2023-05-15T10:45:32;6.00;;;4.30;;
67372;SDS011;54257;54.496;18.412;2023-05-15T10:48:04;4.60;;;4.20;;
67372;SDS011;54257;54.496;18.412;2023-05-15T10:50:35;5.20;;;4.20;;
67372;SDS011;54257;54.496;18.412;2023-05-15T10:53:04;4.40;;;4.00;;
67372;SDS011;54257;54.496;18.412;2023-05-15T10:55:35;8.60;;;4.40;;
67372;SDS011;54257;54.496;18.412;2023-05-15T10:58:09;5.60;;;4.00;;
67372;SDS011;54257;54.496;18.412;2023-05-15T11:00:41;4.30;;;3.70;;
67372;SDS011;54257;54.496;18.412;2023-05-15T11:03:12;6.50;;;4.20;;
67372;SDS011;54257;54.496;18.412;2023-05-15T11:11:57;6.00;;;3.60;;
67372;SDS011;54257;54.496;18.412;2023-05-15T11:18:06;4.00;;;3.20;;
67372;SDS011;54257;54.496;18.412;2023-05-15T11:23:29;10.40;;;4.80;;
67372;SDS011;54257;54.496;18.412;2023-05-15T11:26:07;3.50;;;3.20;;
67372;SDS011;54257;54.496;18.412;2023-05-15T11:28:40;3.50;;;3.20;;
67372;SDS011;54257;54.496;18.412;2023-05-15T11:31:12;4.20;;;3.80;;
67372;SDS011;54257;54.496;18.412;2023-05-15T11:33:42;4.60;;;3.00;;
67372;SDS011;54257;54.496;18.412;2023-05-15T11:36:09;8.80;;;3.50;;
67372;SDS011;54257;54.496;18.412;2023-05-15T11:38:37;4.60;;;3.50;;
67372;SDS011;54257;54.496;18.412;2023-05-15T11:41:30;4.10;;;3.20;;
67372;SDS011;54257;54.496;18.412;2023-05-15T11:43:57;4.10;;;3.60;;
67372;SDS011;54257;54.496;18.412;2023-05-15T11:46:24;4.20;;;3.60;;
67372;SDS011;54257;54.496;18.412;2023-05-15T11:48:52;5.10;;;3.50;;
67372;SDS011;54257;54.496;18.412;2023-05-15T11:51:20;5.80;;;4.30;;
67372;SDS011;54257;54.496;18.412;2023-05-15T11:53:51;4.40;;;3.70;;
67372;SDS011;54257;54.496;18.412;2023-05-15T11:56:22;4.60;;;4.00;;
67372;SDS011;54257;54.496;18.412;2023-05-15T11:58:51;6.60;;;4.30;;
67372;SDS011;54257;54.496;18.412;2023-05-15T12:01:22;7.20;;;4.10;;
67372;SDS011;54257;54.496;18.412;2023-05-15T12:03:49;7.20;;;4.60;;
67372;SDS011;54257;54.496;18.412;2023-05-15T12:06:19;5.20;;;4.60;;
67372;SDS011;54257;54.496;18.412;2023-05-15T12:08:49;5.60;;;4.40;;
67372;SDS011;54257;54.496;18.412;2023-05-15T12:11:22;5.00;;;4.50;;
67372;SDS011;54257;54.496;18.412;2023-05-15T12:13:50;6.40;;;5.10;;
67372;SDS011;54257;54.496;18.412;2023-05-15T12:16:22;5.80;;;4.60;;
67372;SDS011;54257;54.496;18.412;2023-05-15T12:18:55;7.70;;;4.90;;
67372;SDS011;54257;54.496;18.412;2023-05-15T12:21:22;7.20;;;4.80;;
67372;SDS011;54257;54.496;18.412;2023-05-15T12:23:52;5.90;;;4.90;;
67372;SDS011;54257;54.496;18.412;2023-05-15T12:26:21;4.70;;;4.10;;
67372;SDS011;54257;54.496;18.412;2023-05-15T12:28:52;7.80;;;5.10;;
67372;SDS011;54257;54.496;18.412;2023-05-15T12:31:21;7.70;;;4.20;;
67372;SDS011;54257;54.496;18.412;2023-05-15T12:33:48;4.60;;;4.20;;
67372;SDS011;54257;54.496;18.412;2023-05-15T12:36:18;5.20;;;4.60;;
67372;SDS011;54257;54.496;18.412;2023-05-15T12:38:49;6.20;;;5.40;;
67372;SDS011;54257;54.496;18.412;2023-05-15T12:41:16;9.00;;;4.90;;
67372;SDS011;54257;54.496;18.412;2023-05-15T12:43:45;5.90;;;4.60;;
67372;SDS011;54257;54.496;18.412;2023-05-15T12:46:12;8.80;;;4.40;;
67372;SDS011;54257;54.496;18.412;2023-05-15T12:48:40;5.70;;;4.40;;
67372;SDS011;54257;54.496;18.412;2023-05-15T12:51:07;5.60;;;4.40;;
67372;SDS011;54257;54.496;18.412;2023-05-15T12:53:35;7.60;;;4.50;;
67372;SDS011;54257;54.496;18.412;2023-05-15T12:56:04;6.50;;;4.70;;
67372;SDS011;54257;54.496;18.412;2023-05-15T12:58:31;6.70;;;5.00;;
67372;SDS011;54257;54.496;18.412;2023-05-15T13:00:59;12.40;;;5.30;;
67372;SDS011;54257;54.496;18.412;2023-05-15T13:03:28;10.00;;;5.90;;
67372;SDS011;54257;54.496;18.412;2023-05-15T13:05:57;10.60;;;6.00;;
67372;SDS011;54257;54.496;18.412;2023-05-15T13:08:27;9.30;;;5.20;;
67372;SDS011;54257;54.496;18.412;2023-05-15T13:10:55;7.90;;;5.10;;
67372;SDS011;54257;54.496;18.412;2023-05-15T13:13:23;6.30;;;5.10;;
67372;SDS011;54257;54.496;18.412;2023-05-15T13:15:50;7.80;;;5.50;;
67372;SDS011;54257;54.496;18.412;2023-05-15T13:18:16;5.90;;;5.30;;
67372;SDS011;54257;54.496;18.412;2023-05-15T13:20:44;6.30;;;5.70;;
67372;SDS011;54257;54.496;18.412;2023-05-15T13:23:19;6.30;;;4.90;;
67372;SDS011;54257;54.496;18.412;2023-05-15T13:25:48;6.20;;;5.60;;
67372;SDS011;54257;54.496;18.412;2023-05-15T13:28:15;10.20;;;5.50;;
67372;SDS011;54257;54.496;18.412;2023-05-15T13:30:42;6.30;;;5.70;;
67372;SDS011;54257;54.496;18.412;2023-05-15T13:33:10;7.60;;;4.90;;
67372;SDS011;54257;54.496;18.412;2023-05-15T13:35:38;8.40;;;5.00;;
67372;SDS011;54257;54.496;18.412;2023-05-15T13:38:05;5.50;;;5.00;;
67372;SDS011;54257;54.496;18.412;2023-05-15T13:40:33;6.30;;;4.90;;
67372;SDS011;54257;54.496;18.412;2023-05-15T13:43:03;6.20;;;4.90;;
67372;SDS011;54257;54.496;18.412;2023-05-15T13:45:32;7.10;;;4.70;;
67372;SDS011;54257;54.496;18.412;2023-05-15T13:47:59;6.00;;;4.60;;
67372;SDS011;54257;54.496;18.412;2023-05-15T13:50:27;8.30;;;5.20;;
67372;SDS011;54257;54.496;18.412;2023-05-15T13:52:53;6.80;;;4.80;;
67372;SDS011;54257;54.496;18.412;2023-05-15T13:55:23;8.00;;;5.00;;
67372;SDS011;54257;54.496;18.412;2023-05-15T13:57:58;5.50;;;5.00;;
67372;SDS011;54257;54.496;18.412;2023-05-15T14:00:26;6.20;;;5.60;;
67372;SDS011;54257;54.496;18.412;2023-05-15T14:02:53;7.00;;;4.60;;
67372;SDS011;54257;54.496;18.412;2023-05-15T14:05:20;7.10;;;5.60;;
67372;SDS011;54257;54.496;18.412;2023-05-15T14:07:47;7.80;;;5.30;;
67372;SDS011;54257;54.496;18.412;2023-05-15T14:10:14;8.20;;;5.60;;
67372;SDS011;54257;54.496;18.412;2023-05-15T14:12:40;8.30;;;5.50;;
67372;SDS011;54257;54.496;18.412;2023-05-15T14:15:08;6.20;;;5.60;;
67372;SDS011;54257;54.496;18.412;2023-05-15T14:17:37;6.20;;;5.00;;
67372;SDS011;54257;54.496;18.412;2023-05-15T14:20:05;5.80;;;4.60;;
67372;SDS011;54257;54.496;18.412;2023-05-15T14:22:33;5.70;;;4.50;;
67372;SDS011;54257;54.496;18.412;2023-05-15T14:25:03;5.30;;;4.40;;
67372;SDS011;54257;54.496;18.412;2023-05-15T14:27:31;7.50;;;5.50;;
67372;SDS011;54257;54.496;18.412;2023-05-15T14:29:59;7.40;;;5.00;;
67372;SDS011;54257;54.496;18.412;2023-05-15T14:32:26;5.00;;;4.50;;
67372;SDS011;54257;54.496;18.412;2023-05-15T14:34:53;5.60;;;4.30;;
67372;SDS011;54257;54.496;18.412;2023-05-15T14:37:25;5.40;;;4.60;;
67372;SDS011;54257;54.496;18.412;2023-05-15T14:39:55;4.70;;;4.30;;
67372;SDS011;54257;54.496;18.412;2023-05-15T14:42:24;5.50;;;4.80;;
67372;SDS011;54257;54.496;18.412;2023-05-15T14:44:52;5.90;;;4.60;;
67372;SDS011;54257;54.496;18.412;2023-05-15T14:47:19;7.20;;;4.60;;
67372;SDS011;54257;54.496;18.412;2023-05-15T14:49:45;6.00;;;5.00;;
67372;SDS011;54257;54.496;18.412;2023-05-15T14:52:12;8.50;;;5.10;;
67372;SDS011;54257;54.496;18.412;2023-05-15T14:54:39;5.80;;;5.20;;
67372;SDS011;54257;54.496;18.412;2023-05-15T14:57:09;7.30;;;5.30;;
67372;SDS011;54257;54.496;18.412;2023-05-15T14:59:36;5.70;;;5.10;;
67372;SDS011;54257;54.496;18.412;2023-05-15T15:02:03;8.80;;;4.90;;
67372;SDS011;54257;54.496;18.412;2023-05-15T15:04:39;5.40;;;4.60;;
67372;SDS011;54257;54.496;18.412;2023-05-15T15:07:29;6.60;;;5.20;;
67372;SDS011;54257;54.496;18.412;2023-05-15T15:10:22;5.00;;;4.40;;
67372;SDS011;54257;54.496;18.412;2023-05-15T15:13:09;8.50;;;6.00;;
67372;SDS011;54257;54.496;18.412;2023-05-15T15:16:12;5.70;;;4.70;;
67372;SDS011;54257;54.496;18.412;2023-05-15T15:22:19;7.10;;;4.90;;
67372;SDS011;54257;54.496;18.412;2023-05-15T15:25:08;5.30;;;4.80;;
67372;SDS011;54257;54.496;18.412;2023-05-15T15:27:45;7.70;;;5.50;;
67372;SDS011;54257;54.496;18.412;2023-05-15T15:33:38;9.00;;;5.30;;
67372;SDS011;54257;54.496;18.412;2023-05-15T15:36:05;7.60;;;6.00;;
67372;SDS011;54257;54.496;18.412;2023-05-15T15:38:41;7.40;;;5.80;;
67372;SDS011;54257;54.496;18.412;2023-05-15T15:41:18;7.90;;;6.60;;